createdAt,value
2023-04-05T00:00:35.678Z,96221.00
2023-04-05T00:01:35.701Z,96223.00
2023-04-05T00:02:36.778Z,96219.00
2023-04-05T00:03:36.790Z,96221.00
2023-04-05T00:04:36.917Z,96221.00
2023-04-05T00:05:36.779Z,96219.00
2023-04-05T00:06:36.814Z,96219.00
2023-04-05T00:07:36.845Z,96215.00
2023-04-05T00:08:36.931Z,96215.00
2023-04-05T00:09:35.908Z,96211.00
2023-04-05T00:10:36.923Z,96213.00
2023-04-05T00:11:36.955Z,96213.00
2023-04-05T00:12:35.983Z,96213.00
2023-04-05T00:13:37.023Z,96211.00
2023-04-05T00:14:37.050Z,96209.00
2023-04-05T00:15:37.121Z,96211.00
2023-04-05T00:16:37.186Z,96207.00
2023-04-05T00:17:37.190Z,96211.00
2023-04-05T00:18:37.201Z,96207.00
2023-04-05T00:19:37.229Z,96209.00
2023-04-05T00:20:36.258Z,96209.00
2023-04-05T00:21:37.310Z,96209.00
2023-04-05T00:22:37.327Z,96209.00
2023-04-05T00:23:37.402Z,96209.00
2023-04-05T00:24:37.430Z,96207.00
2023-04-05T00:25:37.457Z,96207.00
2023-04-05T00:26:37.493Z,96207.00
2023-04-05T00:27:37.553Z,96203.00
2023-04-05T00:28:36.578Z,96203.00
2023-04-05T00:29:37.607Z,96203.00
2023-04-05T00:30:37.658Z,96205.00
2023-04-05T00:31:36.714Z,96205.00
2023-04-05T00:32:37.840Z,96205.00
2023-04-05T00:33:37.795Z,96205.00
2023-04-05T00:34:37.824Z,96203.00
2023-04-05T00:35:37.904Z,96202.00
2023-04-05T00:36:36.904Z,96198.00
2023-04-05T00:37:36.942Z,96202.00
2023-04-05T00:38:38.016Z,96200.00
2023-04-05T00:39:38.040Z,96200.00
2023-04-05T00:40:37.113Z,96198.00
2023-04-05T00:41:37.101Z,96202.00
2023-04-05T00:42:38.169Z,96198.00
2023-04-05T00:43:38.198Z,96200.00
2023-04-05T00:44:38.261Z,96196.00
2023-04-05T00:45:38.375Z,96194.00
2023-04-05T00:46:38.354Z,96198.00
2023-04-05T00:47:38.397Z,96196.00
2023-04-05T00:48:37.442Z,96196.00
2023-04-05T00:49:38.472Z,96192.00
2023-04-05T00:50:38.570Z,96196.00
2023-04-05T00:51:38.577Z,96192.00
2023-04-05T00:52:38.628Z,96190.00
2023-04-05T00:53:37.858Z,96190.00
2023-04-05T00:54:38.711Z,96188.00
2023-04-05T00:55:38.753Z,96188.00
2023-04-05T00:56:38.821Z,96186.00
2023-04-05T00:57:38.826Z,96184.00
2023-04-05T00:58:38.865Z,96184.00
2023-04-05T00:59:38.912Z,96182.00
2023-04-05T01:00:39.165Z,96182.00
2023-04-05T01:01:39.011Z,96182.00
2023-04-05T01:02:39.110Z,96182.00
2023-04-05T01:03:38.041Z,96182.00
2023-04-05T01:04:38.096Z,96172.00
2023-04-05T01:05:39.113Z,96172.00
2023-04-05T01:06:38.146Z,96170.00
2023-04-05T01:07:38.183Z,96170.00
2023-04-05T01:08:39.249Z,96172.00
2023-04-05T01:09:38.263Z,96170.00
2023-04-05T01:10:39.752Z,96170.00
2023-04-05T01:11:39.330Z,96168.00
2023-04-05T01:12:39.399Z,96168.00
2023-04-05T01:13:39.417Z,96170.00
2023-04-05T01:14:39.443Z,96168.00
2023-04-05T01:15:38.506Z,96170.00
2023-04-05T01:16:38.523Z,96170.00
2023-04-05T01:17:39.649Z,96168.00
2023-04-05T01:18:39.609Z,96170.00
2023-04-05T01:19:39.682Z,96168.00
2023-04-05T01:20:38.820Z,96166.00
2023-04-05T01:21:39.761Z,96168.00
2023-04-05T01:22:39.818Z,96164.00
2023-04-05T01:23:39.819Z,96164.00
2023-04-05T01:24:39.863Z,96166.00
2023-04-05T01:25:38.911Z,96166.00
2023-04-05T01:26:39.947Z,96166.00
2023-04-05T01:27:38.999Z,96166.00
2023-04-05T01:28:39.074Z,96166.00
2023-04-05T01:29:39.106Z,96168.00
2023-04-05T01:30:39.386Z,96166.00
2023-04-05T01:31:40.296Z,96166.00
2023-04-05T01:32:40.301Z,96164.00
2023-04-05T01:33:39.314Z,96160.00
2023-04-05T01:34:40.330Z,96162.00
2023-04-05T01:35:40.413Z,96160.00
2023-04-05T01:36:39.424Z,96160.00
2023-04-05T01:37:40.500Z,96158.00
2023-04-05T01:38:39.528Z,96162.00
2023-04-05T01:39:40.589Z,96160.00
2023-04-05T01:40:39.898Z,96160.00
2023-04-05T01:41:40.678Z,96158.00
2023-04-05T01:42:40.719Z,96156.00
2023-04-05T01:43:40.778Z,96158.00
2023-04-05T01:44:40.841Z,96160.00
2023-04-05T01:45:40.864Z,96158.00
2023-04-05T01:46:40.921Z,96156.00
2023-04-05T01:47:40.981Z,96158.00
2023-04-05T01:48:41.014Z,96158.00
2023-04-05T01:49:41.061Z,96156.00
2023-04-05T01:50:41.310Z,96158.00
2023-04-05T01:51:40.135Z,96158.00
2023-04-05T01:52:40.180Z,96158.00
2023-04-05T01:53:41.208Z,96158.00
2023-04-05T01:54:41.264Z,96158.00
2023-04-05T01:55:41.305Z,96156.00
2023-04-05T01:56:41.357Z,96156.00
2023-04-05T01:57:41.390Z,96156.00
2023-04-05T01:58:41.416Z,96152.00
2023-04-05T01:59:41.474Z,96154.00
2023-04-05T02:00:41.696Z,96150.00
2023-04-05T02:01:41.577Z,96150.00
2023-04-05T02:02:41.743Z,96150.00
2023-04-05T02:03:41.760Z,96150.00
2023-04-05T02:04:40.731Z,96150.00
2023-04-05T02:05:41.801Z,96148.00
2023-04-05T02:06:42.409Z,96148.00
2023-04-05T02:07:41.919Z,96148.00
2023-04-05T02:08:42.006Z,96150.00
2023-04-05T02:09:42.031Z,96148.00
2023-04-05T02:10:42.285Z,96146.00
2023-04-05T02:11:42.148Z,96146.00
2023-04-05T02:12:42.200Z,96144.00
2023-04-05T02:13:41.270Z,96144.00
2023-04-05T02:14:42.342Z,96141.00
2023-04-05T02:15:42.391Z,96141.00
2023-04-05T02:16:41.589Z,96141.00
2023-04-05T02:17:42.600Z,96141.00
2023-04-05T02:18:42.549Z,96139.00
2023-04-05T02:19:42.633Z,96139.00
2023-04-05T02:20:41.914Z,96139.00
2023-04-05T02:21:42.749Z,96139.00
2023-04-05T02:22:42.806Z,96137.00
2023-04-05T02:23:42.871Z,96137.00
2023-04-05T02:24:42.950Z,96131.00
2023-04-05T02:25:42.981Z,96135.00
2023-04-05T02:26:43.070Z,96131.00
2023-04-05T02:27:43.152Z,96135.00
2023-04-05T02:28:42.173Z,96131.00
2023-04-05T02:29:42.233Z,96133.00
2023-04-05T02:30:43.526Z,96131.00
2023-04-05T02:31:43.350Z,96131.00
2023-04-05T02:32:43.422Z,96129.00
2023-04-05T02:33:43.448Z,96129.00
2023-04-05T02:34:43.512Z,96127.00
2023-04-05T02:35:42.580Z,96127.00
2023-04-05T02:36:43.653Z,96125.00
2023-04-05T02:37:42.698Z,96127.00
2023-04-05T02:38:43.776Z,96125.00
2023-04-05T02:39:43.801Z,96125.00
2023-04-05T02:40:43.136Z,96123.00
2023-04-05T02:41:43.895Z,96121.00
2023-04-05T02:42:42.959Z,96123.00
2023-04-05T02:43:44.011Z,96121.00
2023-04-05T02:44:44.051Z,96121.00
2023-04-05T02:45:46.728Z,96119.00
2023-04-05T02:46:43.098Z,96117.00
2023-04-05T02:47:44.110Z,96119.00
2023-04-05T02:48:43.120Z,96115.00
2023-04-05T02:49:43.061Z,96117.00
2023-04-05T02:50:44.061Z,96115.00
2023-04-05T02:51:44.050Z,96117.00
2023-04-05T02:52:44.051Z,96117.00
2023-04-05T02:53:44.034Z,96119.00
2023-04-05T02:54:44.038Z,96115.00
2023-04-05T02:55:44.017Z,96117.00
2023-04-05T02:56:44.019Z,96115.00
2023-04-05T02:57:45.970Z,96117.00
2023-04-05T02:58:43.036Z,96117.00
2023-04-05T02:59:43.997Z,96117.00
2023-04-05T03:00:43.979Z,96115.00
2023-04-05T03:01:43.028Z,96117.00
2023-04-05T03:02:43.041Z,96115.00
2023-04-05T03:03:43.986Z,96113.00
2023-04-05T03:04:43.984Z,96113.00
2023-04-05T03:05:43.948Z,96113.00
2023-04-05T03:06:43.951Z,96113.00
2023-04-05T03:07:43.956Z,96109.00
2023-04-05T03:08:42.938Z,96111.00
2023-04-05T03:09:43.927Z,96107.00
2023-04-05T03:10:43.920Z,96109.00
2023-04-05T03:11:42.919Z,96107.00
2023-04-05T03:12:43.917Z,96103.00
2023-04-05T03:13:43.918Z,96105.00
2023-04-05T03:14:43.914Z,96105.00
2023-04-05T03:15:43.917Z,96103.00
2023-04-05T03:16:43.949Z,96101.00
2023-04-05T03:17:42.921Z,96101.00
2023-04-05T03:18:42.868Z,96099.00
2023-04-05T03:19:43.871Z,96099.00
2023-04-05T03:20:43.933Z,96099.00
2023-04-05T03:21:43.851Z,96095.00
2023-04-05T03:22:43.840Z,96094.00
2023-04-05T03:23:43.843Z,96092.00
2023-04-05T03:24:42.863Z,96094.00
2023-04-05T03:25:43.035Z,96092.00
2023-04-05T03:26:43.838Z,96092.00
2023-04-05T03:27:43.859Z,96090.00
2023-04-05T03:28:43.908Z,96092.00
2023-04-05T03:29:43.973Z,96092.00
2023-04-05T03:30:44.006Z,96092.00
2023-04-05T03:31:44.113Z,96092.00
2023-04-05T03:32:43.160Z,96092.00
2023-04-05T03:33:44.186Z,96090.00
2023-04-05T03:34:44.256Z,96090.00
2023-04-05T03:35:44.342Z,96086.00
2023-04-05T03:36:44.373Z,96092.00
2023-04-05T03:37:44.403Z,96090.00
2023-04-05T03:38:44.464Z,96090.00
2023-04-05T03:39:43.510Z,96088.00
2023-04-05T03:40:44.572Z,96086.00
2023-04-05T03:41:43.626Z,96088.00
2023-04-05T03:42:44.688Z,96088.00
2023-04-05T03:43:43.743Z,96090.00
2023-04-05T03:44:44.812Z,96090.00
2023-04-05T03:45:44.868Z,96092.00
2023-04-05T03:46:44.922Z,96090.00
2023-04-05T03:47:45.015Z,96094.00
2023-04-05T03:48:44.044Z,96094.00
2023-04-05T03:49:45.097Z,96094.00
2023-04-05T03:50:44.137Z,96094.00
2023-04-05T03:51:45.207Z,96094.00
2023-04-05T03:52:45.296Z,96090.00
2023-04-05T03:53:44.320Z,96088.00
2023-04-05T03:54:45.378Z,96088.00
2023-04-05T03:55:45.433Z,96090.00
2023-04-05T03:56:44.482Z,96088.00
2023-04-05T03:57:45.546Z,96090.00
2023-04-05T03:58:45.626Z,96090.00
2023-04-05T03:59:45.644Z,96088.00
2023-04-05T04:00:44.718Z,96088.00
2023-04-05T04:01:44.831Z,96088.00
2023-04-05T04:02:44.834Z,96086.00
2023-04-05T04:03:45.893Z,96090.00
2023-04-05T04:04:45.992Z,96088.00
2023-04-05T04:05:46.162Z,96086.00
2023-04-05T04:06:46.077Z,96088.00
2023-04-05T04:07:45.136Z,96086.00
2023-04-05T04:08:45.208Z,96082.00
2023-04-05T04:09:45.238Z,96082.00
2023-04-05T04:10:46.302Z,96086.00
2023-04-05T04:11:45.359Z,96084.00
2023-04-05T04:12:46.437Z,96086.00
2023-04-05T04:13:46.487Z,96088.00
2023-04-05T04:14:46.612Z,96090.00
2023-04-05T04:15:45.585Z,96088.00
2023-04-05T04:16:46.683Z,96086.00
2023-04-05T04:17:46.790Z,96084.00
2023-04-05T04:18:46.794Z,96086.00
2023-04-05T04:19:46.863Z,96082.00
2023-04-05T04:20:45.907Z,96082.00
2023-04-05T04:21:46.968Z,96082.00
2023-04-05T04:22:46.997Z,96082.00
2023-04-05T04:23:47.065Z,96084.00
2023-04-05T04:24:46.124Z,96082.00
2023-04-05T04:25:47.132Z,96084.00
2023-04-05T04:26:47.270Z,96086.00
2023-04-05T04:27:46.178Z,96084.00
2023-04-05T04:28:47.199Z,96084.00
2023-04-05T04:29:47.277Z,96082.00
2023-04-05T04:30:47.277Z,96084.00
2023-04-05T04:31:47.358Z,96082.00
2023-04-05T04:32:46.412Z,96082.00
2023-04-05T04:33:47.382Z,96082.00
2023-04-05T04:34:47.442Z,96082.00
2023-04-05T04:35:46.466Z,96084.00
2023-04-05T04:36:47.465Z,96086.00
2023-04-05T04:37:46.490Z,96088.00
2023-04-05T04:38:46.506Z,96082.00
2023-04-05T04:39:47.556Z,96088.00
2023-04-05T04:40:47.557Z,96088.00
2023-04-05T04:41:47.597Z,96088.00
2023-04-05T04:42:46.644Z,96090.00
2023-04-05T04:43:47.690Z,96088.00
2023-04-05T04:44:47.738Z,96092.00
2023-04-05T04:45:47.774Z,96092.00
2023-04-05T04:46:47.795Z,96092.00
2023-04-05T04:47:47.850Z,96094.00
2023-04-05T04:48:47.867Z,96094.00
2023-04-05T04:49:48.107Z,96092.00
2023-04-05T04:50:46.947Z,96090.00
2023-04-05T04:51:48.002Z,96090.00
2023-04-05T04:52:48.071Z,96092.00
2023-04-05T04:53:47.116Z,96092.00
2023-04-05T04:54:48.190Z,96094.00
2023-04-05T04:55:48.239Z,96094.00
2023-04-05T04:56:48.269Z,96092.00
2023-04-05T04:57:48.356Z,96095.00
2023-04-05T04:58:48.424Z,96095.00
2023-04-05T04:59:48.478Z,96095.00
2023-04-05T05:00:48.540Z,96094.00
2023-04-05T05:01:48.557Z,96095.00
2023-04-05T05:02:48.634Z,96095.00
2023-04-05T05:03:48.715Z,96097.00
2023-04-05T05:04:47.690Z,96094.00
2023-04-05T05:05:48.734Z,96095.00
2023-04-05T05:06:47.726Z,96094.00
2023-04-05T05:07:48.753Z,96095.00
2023-04-05T05:08:48.786Z,96095.00
2023-04-05T05:09:48.817Z,96095.00
2023-04-05T05:10:47.859Z,96094.00
2023-04-05T05:11:48.938Z,96095.00
2023-04-05T05:12:48.932Z,96097.00
2023-04-05T05:13:52.613Z,96095.00
2023-04-05T05:14:47.951Z,96095.00
2023-04-05T05:15:48.952Z,96094.00
2023-04-05T05:16:49.015Z,96097.00
2023-04-05T05:17:49.012Z,96097.00
2023-04-05T05:18:49.021Z,96097.00
2023-04-05T05:19:49.063Z,96095.00
2023-04-05T05:20:49.093Z,96097.00
2023-04-05T05:21:49.096Z,96095.00
2023-04-05T05:22:49.118Z,96099.00
2023-04-05T05:23:48.140Z,96099.00
2023-04-05T05:24:49.164Z,96103.00
2023-04-05T05:25:49.185Z,96103.00
2023-04-05T05:26:49.218Z,96107.00
2023-04-05T05:27:49.281Z,96105.00
2023-04-05T05:28:48.277Z,96107.00
2023-04-05T05:29:49.311Z,96109.00
2023-04-05T05:30:49.348Z,96109.00
2023-04-05T05:31:49.328Z,96109.00
2023-04-05T05:32:49.401Z,96107.00
2023-04-05T05:33:49.388Z,96113.00
2023-04-05T05:34:49.427Z,96113.00
2023-04-05T05:35:49.486Z,96117.00
2023-04-05T05:36:49.465Z,96117.00
2023-04-05T05:37:49.477Z,96117.00
2023-04-05T05:38:49.515Z,96117.00
2023-04-05T05:39:48.540Z,96119.00
2023-04-05T05:40:49.563Z,96117.00
2023-04-05T05:41:49.572Z,96117.00
2023-04-05T05:42:49.604Z,96115.00
2023-04-05T05:43:49.576Z,96119.00
2023-04-05T05:44:48.568Z,96119.00
2023-04-05T05:45:49.576Z,96119.00
2023-04-05T05:46:49.550Z,96121.00
2023-04-05T05:47:49.590Z,96121.00
2023-04-05T05:48:49.567Z,96123.00
2023-04-05T05:49:48.559Z,96121.00
2023-04-05T05:50:49.558Z,96121.00
2023-04-05T05:51:49.567Z,96123.00
2023-04-05T05:52:48.590Z,96121.00
2023-04-05T05:53:48.623Z,96121.00
2023-04-05T05:54:49.651Z,96117.00
2023-04-05T05:55:49.661Z,96117.00
2023-04-05T05:56:49.668Z,96119.00
2023-04-05T05:57:49.666Z,96119.00
2023-04-05T05:58:49.715Z,96119.00
2023-04-05T05:59:50.067Z,96119.00
2023-04-05T06:00:50.755Z,96121.00
2023-04-05T06:01:49.671Z,96121.00
2023-04-05T06:02:49.852Z,96119.00
2023-04-05T06:03:49.841Z,96119.00
2023-04-05T06:04:48.869Z,96113.00
2023-04-05T06:05:49.840Z,96117.00
2023-04-05T06:06:49.888Z,96115.00
2023-04-05T06:07:49.955Z,96115.00
2023-04-05T06:08:50.019Z,96113.00
2023-04-05T06:09:50.171Z,96111.00
2023-04-05T06:10:49.131Z,96113.00
2023-04-05T06:11:56.447Z,96111.00
2023-04-05T06:12:50.191Z,96109.00
2023-04-05T06:13:50.173Z,96109.00
2023-04-05T06:14:50.161Z,96111.00
2023-04-05T06:15:49.231Z,96109.00
2023-04-05T06:16:49.157Z,96111.00
2023-04-05T06:17:49.171Z,96109.00
2023-04-05T06:18:49.123Z,96113.00
2023-04-05T06:19:50.749Z,96111.00
2023-04-05T06:20:50.108Z,96113.00
2023-04-05T06:21:49.113Z,96113.00
2023-04-05T06:22:50.124Z,96109.00
2023-04-05T06:23:49.090Z,96111.00
2023-04-05T06:24:50.096Z,96111.00
2023-04-05T06:25:50.083Z,96109.00
2023-04-05T06:26:50.085Z,96109.00
2023-04-05T06:27:50.084Z,96111.00
2023-04-05T06:28:50.068Z,96107.00
2023-04-05T06:29:50.096Z,96107.00
2023-04-05T06:30:50.120Z,96105.00
2023-04-05T06:31:50.213Z,96105.00
2023-04-05T06:32:50.199Z,96105.00
2023-04-05T06:33:49.440Z,96105.00
2023-04-05T06:34:49.310Z,96101.00
2023-04-05T06:35:50.392Z,96101.00
2023-04-05T06:36:50.402Z,96101.00
2023-04-05T06:37:49.465Z,96099.00
2023-04-05T06:38:50.565Z,96101.00
2023-04-05T06:39:50.566Z,96099.00
2023-04-05T06:40:50.678Z,96097.00
2023-04-05T06:41:50.716Z,96099.00
2023-04-05T06:42:50.758Z,96097.00
2023-04-05T06:43:49.826Z,96097.00
2023-04-05T06:44:50.897Z,96095.00
2023-04-05T06:45:50.995Z,96094.00
2023-04-05T06:46:51.019Z,96094.00
2023-04-05T06:47:51.165Z,96095.00
2023-04-05T06:48:50.141Z,96094.00
2023-04-05T06:49:51.213Z,96094.00
2023-04-05T06:50:51.270Z,96094.00
2023-04-05T06:51:51.333Z,96094.00
2023-04-05T06:52:51.380Z,96092.00
2023-04-05T06:53:51.440Z,96094.00
2023-04-05T06:54:51.523Z,96090.00
2023-04-05T06:55:51.598Z,96090.00
2023-04-05T06:56:51.649Z,96088.00
2023-04-05T06:57:51.711Z,96088.00
2023-04-05T06:58:51.855Z,96088.00
2023-04-05T06:59:51.833Z,96086.00
2023-04-05T07:00:51.913Z,96084.00
2023-04-05T07:01:50.952Z,96084.00
2023-04-05T07:02:52.042Z,96088.00
2023-04-05T07:03:52.097Z,96086.00
2023-04-05T07:04:52.180Z,96084.00
2023-04-05T07:05:52.221Z,96082.00
2023-04-05T07:06:52.235Z,96086.00
2023-04-05T07:07:52.293Z,96084.00
2023-04-05T07:08:51.379Z,96082.00
2023-04-05T07:09:52.428Z,96080.00
2023-04-05T07:10:52.479Z,96082.00
2023-04-05T07:11:52.510Z,96082.00
2023-04-05T07:12:51.563Z,96082.00
2023-04-05T07:13:52.621Z,96082.00
2023-04-05T07:14:51.669Z,96082.00
2023-04-05T07:15:53.062Z,96082.00
2023-04-05T07:16:52.782Z,96082.00
2023-04-05T07:17:51.988Z,96082.00
2023-04-05T07:18:52.857Z,96082.00
2023-04-05T07:19:52.935Z,96084.00
2023-04-05T07:20:52.951Z,96080.00
2023-04-05T07:21:53.003Z,96078.00
2023-04-05T07:22:53.042Z,96080.00
2023-04-05T07:23:53.105Z,96078.00
2023-04-05T07:24:52.129Z,96078.00
2023-04-05T07:25:52.171Z,96076.00
2023-04-05T07:26:53.248Z,96076.00
2023-04-05T07:27:52.267Z,96072.00
2023-04-05T07:28:52.414Z,96074.00
2023-04-05T07:29:52.365Z,96074.00
2023-04-05T07:30:53.542Z,96074.00
2023-04-05T07:31:53.458Z,96072.00
2023-04-05T07:32:52.546Z,96070.00
2023-04-05T07:33:53.528Z,96074.00
2023-04-05T07:34:53.572Z,96072.00
2023-04-05T07:35:52.675Z,96074.00
2023-04-05T07:36:53.631Z,96072.00
2023-04-05T07:37:52.678Z,96072.00
2023-04-05T07:38:53.717Z,96072.00
2023-04-05T07:39:52.747Z,96070.00
2023-04-05T07:40:53.790Z,96070.00
2023-04-05T07:41:53.799Z,96068.00
2023-04-05T07:42:53.855Z,96066.00
2023-04-05T07:43:52.872Z,96066.00
2023-04-05T07:44:53.897Z,96066.00
2023-04-05T07:45:53.925Z,96066.00
2023-04-05T07:46:54.002Z,96064.00
2023-04-05T07:47:54.034Z,96062.00
2023-04-05T07:48:53.988Z,96062.00
2023-04-05T07:49:54.001Z,96060.00
2023-04-05T07:50:54.017Z,96060.00
2023-04-05T07:51:54.068Z,96060.00
2023-04-05T07:52:54.045Z,96060.00
2023-04-05T07:53:54.069Z,96062.00
2023-04-05T07:54:54.079Z,96058.00
2023-04-05T07:55:54.109Z,96060.00
2023-04-05T07:56:53.128Z,96058.00
2023-04-05T07:57:54.140Z,96060.00
2023-04-05T07:58:53.256Z,96060.00
2023-04-05T07:59:54.201Z,96058.00
2023-04-05T08:00:54.217Z,96060.00
2023-04-05T08:01:57.263Z,96058.00
2023-04-05T08:02:54.266Z,96056.00
2023-04-05T08:03:54.350Z,96056.00
2023-04-05T08:04:54.363Z,96052.00
2023-04-05T08:05:54.991Z,96054.00
2023-04-05T08:06:54.204Z,96050.00
2023-04-05T08:07:54.232Z,96052.00
2023-04-05T08:08:53.200Z,96052.00
2023-04-05T08:09:54.193Z,96048.00
2023-04-05T08:10:54.179Z,96054.00
2023-04-05T08:11:54.190Z,96048.00
2023-04-05T08:12:53.164Z,96050.00
2023-04-05T08:13:53.161Z,96047.00
2023-04-05T08:14:53.154Z,96045.00
2023-04-05T08:15:53.167Z,96047.00
2023-04-05T08:16:54.140Z,96043.00
2023-04-05T08:17:54.161Z,96043.00
2023-04-05T08:18:54.116Z,96043.00
2023-04-05T08:19:53.120Z,96041.00
2023-04-05T08:20:54.098Z,96043.00
2023-04-05T08:21:54.129Z,96041.00
2023-04-05T08:22:53.090Z,96043.00
2023-04-05T08:23:53.107Z,96041.00
2023-04-05T08:24:54.126Z,96041.00
2023-04-05T08:25:53.081Z,96039.00
2023-04-05T08:26:54.089Z,96039.00
2023-04-05T08:27:54.069Z,96041.00
2023-04-05T08:28:54.060Z,96037.00
2023-04-05T08:29:54.062Z,96037.00
2023-04-05T08:30:53.048Z,96039.00
2023-04-05T08:31:54.075Z,96039.00
2023-04-05T08:32:53.062Z,96037.00
2023-04-05T08:33:53.048Z,96039.00
2023-04-05T08:34:54.034Z,96039.00
2023-04-05T08:35:54.032Z,96037.00
2023-04-05T08:36:54.004Z,96039.00
2023-04-05T08:37:52.995Z,96037.00
2023-04-05T08:38:54.082Z,96039.00
2023-04-05T08:39:54.020Z,96037.00
2023-04-05T08:40:53.986Z,96033.00
2023-04-05T08:41:53.990Z,96033.00
2023-04-05T08:42:53.957Z,96033.00
2023-04-05T08:43:53.965Z,96033.00
2023-04-05T08:44:53.959Z,96033.00
2023-04-05T08:45:53.987Z,96035.00
2023-04-05T08:46:53.961Z,96033.00
2023-04-05T08:47:54.037Z,96033.00
2023-04-05T08:48:53.935Z,96033.00
2023-04-05T08:49:53.927Z,96031.00
2023-04-05T08:50:53.925Z,96035.00
2023-04-05T08:51:53.927Z,96033.00
2023-04-05T08:52:53.911Z,96033.00
2023-04-05T08:53:53.924Z,96031.00
2023-04-05T08:54:53.897Z,96029.00
2023-04-05T08:55:52.912Z,96033.00
2023-04-05T08:56:53.891Z,96033.00
2023-04-05T08:57:53.885Z,96029.00
2023-04-05T08:58:53.913Z,96029.00
2023-04-05T08:59:53.857Z,96031.00
2023-04-05T09:00:54.669Z,96029.00
2023-04-05T09:01:53.870Z,96029.00
2023-04-05T09:02:53.945Z,96029.00
2023-04-05T09:03:53.832Z,96027.00
2023-04-05T09:04:53.827Z,96027.00
2023-04-05T09:05:53.825Z,96025.00
2023-04-05T09:06:52.861Z,96023.00
2023-04-05T09:07:53.848Z,96021.00
2023-04-05T09:08:53.907Z,96021.00
2023-04-05T09:09:53.960Z,96021.00
2023-04-05T09:10:53.970Z,96019.00
2023-04-05T09:11:54.021Z,96017.00
2023-04-05T09:12:54.046Z,96015.00
2023-04-05T09:13:54.082Z,96013.00
2023-04-05T09:14:54.108Z,96011.00
2023-04-05T09:15:53.146Z,96017.00
2023-04-05T09:16:53.187Z,96015.00
2023-04-05T09:17:54.234Z,96015.00
2023-04-05T09:18:53.257Z,96013.00
2023-04-05T09:19:54.289Z,96015.00
2023-04-05T09:20:54.322Z,96015.00
2023-04-05T09:21:54.399Z,96011.00
2023-04-05T09:22:54.400Z,96011.00
2023-04-05T09:23:53.425Z,96009.00
2023-04-05T09:24:54.447Z,96009.00
2023-04-05T09:25:54.457Z,96009.00
2023-04-05T09:26:54.496Z,96007.00
2023-04-05T09:27:53.572Z,96007.00
2023-04-05T09:28:53.588Z,96005.00
2023-04-05T09:29:53.614Z,96003.00
2023-04-05T09:30:54.652Z,96005.00
2023-04-05T09:31:54.730Z,96007.00
2023-04-05T09:32:54.751Z,96007.00
2023-04-05T09:33:54.748Z,96007.00
2023-04-05T09:34:54.812Z,96005.00
2023-04-05T09:35:54.966Z,96007.00
2023-04-05T09:36:54.911Z,96005.00
2023-04-05T09:37:53.940Z,96003.00
2023-04-05T09:38:53.975Z,96007.00
2023-04-05T09:39:55.018Z,96000.00
2023-04-05T09:40:55.179Z,96003.00
2023-04-05T09:41:55.133Z,96005.00
2023-04-05T09:42:54.231Z,96001.00
2023-04-05T09:43:55.325Z,96000.00
2023-04-05T09:44:55.288Z,96003.00
2023-04-05T09:45:55.396Z,96003.00
2023-04-05T09:46:55.449Z,96003.00
2023-04-05T09:47:54.511Z,96003.00
2023-04-05T09:48:54.525Z,96001.00
2023-04-05T09:49:54.596Z,96001.00
2023-04-05T09:51:00.876Z,96001.00
2023-04-05T09:51:55.660Z,96001.00
2023-04-05T09:52:55.654Z,95996.00
2023-04-05T09:53:54.639Z,95998.00
2023-04-05T09:54:54.636Z,95998.00
2023-04-05T09:55:55.623Z,95998.00
2023-04-05T09:56:55.620Z,95994.00
2023-04-05T09:57:54.603Z,95996.00
2023-04-05T09:58:55.619Z,95996.00
2023-04-05T09:59:55.610Z,95996.00
2023-04-05T10:01:06.669Z,95996.00
2023-04-05T10:01:55.679Z,95992.00
2023-04-05T10:02:55.701Z,95994.00
2023-04-05T10:03:55.627Z,95990.00
2023-04-05T10:04:55.553Z,95990.00
2023-04-05T10:05:54.540Z,95990.00
2023-04-05T10:06:55.599Z,95990.00
2023-04-05T10:07:54.559Z,95990.00
2023-04-05T10:08:55.528Z,95988.00
2023-04-05T10:09:55.524Z,95986.00
2023-04-05T10:10:54.532Z,95982.00
2023-04-05T10:11:55.533Z,95982.00
2023-04-05T10:12:55.494Z,95982.00
2023-04-05T10:13:55.502Z,95980.00
2023-04-05T10:14:55.500Z,95982.00
2023-04-05T10:15:54.533Z,95982.00
2023-04-05T10:16:54.471Z,95976.00
2023-04-05T10:17:55.532Z,95974.00
2023-04-05T10:18:55.472Z,95970.00
2023-04-05T10:19:55.444Z,95972.00
2023-04-05T10:20:55.449Z,95972.00
2023-04-05T10:21:55.435Z,95974.00
2023-04-05T10:22:54.509Z,95972.00
2023-04-05T10:23:55.577Z,95972.00
2023-04-05T10:24:55.649Z,95972.00
2023-04-05T10:25:54.705Z,95972.00
2023-04-05T10:26:55.730Z,95970.00
2023-04-05T10:27:55.794Z,95970.00
2023-04-05T10:28:54.841Z,95968.00
2023-04-05T10:29:55.880Z,95964.00
2023-04-05T10:30:55.997Z,95964.00
2023-04-05T10:31:56.021Z,95960.00
2023-04-05T10:32:56.201Z,95956.00
2023-04-05T10:33:56.087Z,95956.00
2023-04-05T10:34:56.170Z,95960.00
2023-04-05T10:35:55.250Z,95954.00
2023-04-05T10:36:55.301Z,95958.00
2023-04-05T10:37:56.334Z,95956.00
2023-04-05T10:38:57.827Z,95956.00
2023-04-05T10:39:56.378Z,95954.00
2023-04-05T10:40:56.405Z,95960.00
2023-04-05T10:41:56.374Z,95958.00
2023-04-05T10:42:56.402Z,95958.00
2023-04-05T10:43:56.341Z,95956.00
2023-04-05T10:44:56.381Z,95958.00
2023-04-05T10:45:56.374Z,95956.00
2023-04-05T10:46:56.468Z,95954.00
2023-04-05T10:47:56.439Z,95956.00
2023-04-05T10:48:55.397Z,95954.00
2023-04-05T10:49:56.335Z,95949.00
2023-04-05T10:50:55.329Z,95951.00
2023-04-05T10:51:56.319Z,95949.00
2023-04-05T10:52:56.333Z,95945.00
2023-04-05T10:53:55.287Z,95945.00
2023-04-05T10:54:55.353Z,95943.00
2023-04-05T10:55:56.277Z,95943.00
2023-04-05T10:56:56.355Z,95943.00
2023-04-05T10:57:55.264Z,95943.00
2023-04-05T10:58:55.332Z,95941.00
2023-04-05T10:59:56.292Z,95941.00
2023-04-05T11:00:56.285Z,95941.00
2023-04-05T11:01:56.358Z,95941.00
2023-04-05T11:02:56.341Z,95939.00
2023-04-05T11:03:56.263Z,95937.00
2023-04-05T11:04:56.204Z,95937.00
2023-04-05T11:05:56.196Z,95935.00
2023-04-05T11:06:56.211Z,95935.00
2023-04-05T11:07:55.234Z,95933.00
2023-04-05T11:08:55.296Z,95931.00
2023-04-05T11:09:56.387Z,95933.00
2023-04-05T11:10:56.368Z,95933.00
2023-04-05T11:11:56.399Z,95933.00
2023-04-05T11:12:56.469Z,95931.00
2023-04-05T11:13:55.513Z,95927.00
2023-04-05T11:14:56.540Z,95925.00
2023-04-05T11:15:56.601Z,95929.00
2023-04-05T11:16:56.996Z,95927.00
2023-04-05T11:17:55.718Z,95929.00
2023-04-05T11:18:56.729Z,95927.00
2023-04-05T11:19:56.766Z,95927.00
2023-04-05T11:20:56.812Z,95927.00
2023-04-05T11:21:56.837Z,95923.00
2023-04-05T11:22:56.887Z,95915.00
2023-04-05T11:23:55.944Z,95913.00
2023-04-05T11:24:56.992Z,95911.00
2023-04-05T11:25:57.032Z,95911.00
2023-04-05T11:26:57.061Z,95913.00
2023-04-05T11:27:57.112Z,95915.00
2023-04-05T11:28:56.162Z,95911.00
2023-04-05T11:29:57.205Z,95913.00
2023-04-05T11:30:57.450Z,95909.00
2023-04-05T11:31:57.313Z,95909.00
2023-04-05T11:32:57.383Z,95907.00
2023-04-05T11:33:58.296Z,95909.00
2023-04-05T11:34:57.484Z,95909.00
2023-04-05T11:35:57.551Z,95907.00
2023-04-05T11:36:57.569Z,95905.00
2023-04-05T11:37:57.628Z,95903.00
2023-04-05T11:38:56.654Z,95905.00
2023-04-05T11:39:57.695Z,95900.00
2023-04-05T11:40:57.729Z,95900.00
2023-04-05T11:41:57.775Z,95896.00
2023-04-05T11:42:57.822Z,95894.00
2023-04-05T11:43:57.869Z,95896.00
2023-04-05T11:44:57.893Z,95894.00